Terminal Aerodrome Forecast
Issued by NWS Boston, MA

Home | Current Version | Previous Version | Text Only | Print | Product List | Glossary On
Versions: 1 2 3 4 5 6 7 8 9 10 11 12 13 14 15 16 17 18 19 20 21 22 23 24 25 26 27 28 29
000
FTUS41 KBOX 231523 AAA
TAFPVD
TAF AMD
KPVD 231523Z 2315/2412 01014G28KT 6SM -SHRA BR OVC015
     FM231600 01015G29KT 6SM -SHRA BR SCT010 OVC015
     FM231700 01014G28KT P6SM OVC012
     FM232000 01013G24KT P6SM OVC010
     FM240900 34012KT P6SM OVC015=

USA.gov is the U.S. government's official web portal to all federal, state and local government web resources and services.